createdAt,value
2023-01-13T00:01:25.062Z,100112.59
2023-01-13T00:03:51.673Z,100118.84
2023-01-13T00:06:21.603Z,100111.59
2023-01-13T00:08:48.662Z,100118.66
2023-01-13T00:11:15.405Z,100133.88
2023-01-13T00:13:42.072Z,100118.50
2023-01-13T00:16:11.404Z,100116.66
2023-01-13T00:18:38.492Z,100120.19
2023-01-13T00:21:07.153Z,100122.72
2023-01-13T00:23:35.727Z,100117.31
2023-01-13T00:26:04.998Z,100120.88
2023-01-13T00:28:31.549Z,100121.91
2023-01-13T00:31:05.390Z,100121.06
2023-01-13T00:33:32.078Z,100117.50
2023-01-13T00:35:59.864Z,100112.94
2023-01-13T00:38:27.185Z,100112.09
2023-01-13T00:40:59.318Z,100113.94
2023-01-13T00:43:26.734Z,100108.53
2023-01-13T00:45:53.577Z,100102.13
2023-01-13T00:48:21.365Z,100106.69
2023-01-13T00:50:55.014Z,100101.09
2023-01-13T00:53:21.996Z,100105.69
2023-01-13T00:55:48.594Z,100110.25
2023-01-13T00:58:16.510Z,100105.69
2023-01-13T01:00:43.193Z,100111.09
2023-01-13T01:03:09.810Z,100108.38
2023-01-13T01:05:36.389Z,100109.19
2023-01-13T01:08:02.950Z,100106.50
2023-01-13T01:10:29.508Z,100106.50
2023-01-13T01:12:56.049Z,100108.19
2023-01-13T01:15:23.996Z,100108.19
2023-01-13T01:17:50.568Z,100107.91
2023-01-13T01:20:17.290Z,100102.50
2023-01-13T01:22:43.834Z,100107.06
2023-01-13T01:25:10.386Z,100106.88
2023-01-13T01:27:36.918Z,100103.16
2023-01-13T01:30:04.102Z,100103.16
2023-01-13T01:32:33.927Z,100111.13
2023-01-13T01:35:00.508Z,100107.41
2023-01-13T01:37:27.108Z,100099.31
2023-01-13T01:39:53.668Z,100106.56
2023-01-13T01:42:20.346Z,100107.41
2023-01-13T01:45:01.388Z,100098.44
2023-01-13T01:47:29.449Z,100102.00
2023-01-13T01:49:58.394Z,100103.84
2023-01-13T01:52:29.547Z,100103.66
2023-01-13T01:55:01.738Z,100091.19
2023-01-13T01:57:32.769Z,100097.41
2023-01-13T02:00:01.088Z,100100.13
2023-01-13T02:02:28.205Z,100086.59
2023-01-13T02:04:54.922Z,100090.16
2023-01-13T02:07:25.973Z,100080.38
2023-01-13T02:09:53.878Z,100088.50
2023-01-13T02:12:20.657Z,100088.50
2023-01-13T02:14:47.278Z,100081.38
2023-01-13T02:17:30.288Z,100075.13
2023-01-13T02:20:34.938Z,100077.84
2023-01-13T02:23:34.957Z,100071.56
2023-01-13T02:26:30.076Z,100078.84
2023-01-13T02:29:09.851Z,100069.03
2023-01-13T02:31:41.989Z,100072.78
2023-01-13T02:34:15.036Z,100070.06
2023-01-13T02:36:50.250Z,100071.06
2023-01-13T02:39:24.953Z,100071.94
2023-01-13T02:41:56.907Z,100062.13
2023-01-13T02:44:28.530Z,100070.22
2023-01-13T02:47:02.945Z,100055.03
2023-01-13T02:49:34.383Z,100068.53
2023-01-13T02:52:08.194Z,100068.66
2023-01-13T02:54:37.276Z,100062.44
2023-01-13T02:57:06.196Z,100050.78
2023-01-13T02:59:33.799Z,100053.47
2023-01-13T03:02:02.542Z,100035.56
2023-01-13T03:04:51.148Z,100039.47
2023-01-13T03:07:53.400Z,100035.22
2023-01-13T03:10:29.654Z,100038.09
2023-01-13T03:13:06.627Z,100036.56
2023-01-13T03:15:42.662Z,100034.88
2023-01-13T03:18:19.519Z,100040.13
2023-01-13T03:20:56.037Z,100033.88
2023-01-13T03:23:30.827Z,100039.44
2023-01-13T03:26:08.316Z,100047.72
2023-01-13T03:28:41.085Z,100046.72
2023-01-13T03:31:11.956Z,100032.38
2023-01-13T03:33:43.668Z,100041.31
2023-01-13T03:36:12.801Z,100042.34
2023-01-13T03:38:43.413Z,100050.44
2023-01-13T03:41:15.580Z,100046.72
2023-01-13T03:43:47.412Z,100053.13
2023-01-13T03:46:19.551Z,100049.44
2023-01-13T03:48:52.796Z,100046.72
2023-01-13T03:51:23.659Z,100046.88
2023-01-13T03:53:55.426Z,100054.00
2023-01-13T03:56:27.988Z,100032.38
2023-01-13T03:58:55.022Z,100044.03
2023-01-13T04:01:25.013Z,100044.84
2023-01-13T04:03:57.295Z,100040.28
2023-01-13T04:06:29.969Z,100042.13
2023-01-13T04:09:03.075Z,100035.91
2023-01-13T04:11:35.373Z,100037.78
2023-01-13T04:14:03.673Z,100028.63
2023-01-13T04:16:31.077Z,100035.91
2023-01-13T04:18:59.012Z,100034.22
2023-01-13T04:21:26.414Z,100033.53
2023-01-13T04:23:52.983Z,100033.72
2023-01-13T04:26:19.543Z,100031.19
2023-01-13T04:28:46.158Z,100035.88
2023-01-13T04:31:12.742Z,100038.78
2023-01-13T04:33:39.308Z,100037.09
2023-01-13T04:36:07.896Z,100033.53
2023-01-13T04:38:34.465Z,100031.00
2023-01-13T04:41:01.006Z,100039.28
2023-01-13T04:43:27.571Z,100041.28
2023-01-13T04:45:54.166Z,100044.00
2023-01-13T04:48:20.724Z,100043.00
2023-01-13T04:50:47.283Z,100044.50
2023-01-13T04:53:15.261Z,100047.03
2023-01-13T04:55:41.802Z,100052.09
2023-01-13T04:58:10.040Z,100062.59
2023-01-13T05:00:37.483Z,100058.69
2023-01-13T05:03:04.546Z,100076.44
2023-01-13T05:05:31.455Z,100064.44
2023-01-13T05:07:57.986Z,100088.44
2023-01-13T05:10:26.213Z,100085.56
2023-01-13T05:12:52.744Z,100110.75
2023-01-13T05:15:19.371Z,100104.34
2023-01-13T05:17:46.255Z,100100.09
2023-01-13T05:20:13.189Z,100102.28
2023-01-13T05:22:39.805Z,100109.69
2023-01-13T05:25:08.783Z,100109.19
2023-01-13T05:27:36.840Z,100108.84
2023-01-13T05:30:04.473Z,100120.00
2023-01-13T05:32:31.106Z,100107.69
2023-01-13T05:34:57.698Z,100110.88
2023-01-13T05:37:24.901Z,100102.41
2023-01-13T05:39:51.487Z,100108.16
2023-01-13T05:42:18.045Z,100095.81
2023-01-13T05:44:45.938Z,100113.19
2023-01-13T05:47:12.444Z,100114.22
2023-01-13T05:49:40.919Z,100116.91
2023-01-13T05:52:08.694Z,100116.91
2023-01-13T05:54:35.242Z,100123.16
2023-01-13T05:57:01.759Z,100125.84
2023-01-13T05:59:28.293Z,100124.84
2023-01-13T06:01:56.168Z,100118.25
2023-01-13T06:04:22.759Z,100102.06
2023-01-13T06:06:49.308Z,100097.50
2023-01-13T06:09:16.014Z,100107.47
2023-01-13T06:11:42.553Z,100120.81
2023-01-13T06:14:09.153Z,100105.59
2023-01-13T06:16:35.722Z,100099.19
2023-01-13T06:19:03.616Z,100103.91
2023-01-13T06:21:32.401Z,100099.50
2023-01-13T06:23:59.751Z,100097.84
2023-01-13T06:26:29.829Z,100110.50
2023-01-13T06:28:56.362Z,100128.56
2023-01-13T06:31:23.831Z,100126.00
2023-01-13T06:33:55.604Z,100124.16
2023-01-13T06:36:27.250Z,100124.00
2023-01-13T06:38:57.944Z,100103.25
2023-01-13T06:41:27.142Z,100093.25
2023-01-13T06:43:53.688Z,100095.97
2023-01-13T06:46:20.216Z,100089.91
2023-01-13T06:48:46.729Z,100100.69
2023-01-13T06:51:13.259Z,100113.50
2023-01-13T06:53:41.288Z,100102.03
2023-01-13T06:56:08.000Z,100102.03
2023-01-13T06:58:34.614Z,100100.34
2023-01-13T07:01:01.338Z,100112.69
2023-01-13T07:03:27.980Z,100106.25
2023-01-13T07:05:55.585Z,100099.00
2023-01-13T07:08:22.701Z,100069.47
2023-01-13T07:10:51.018Z,100042.63
2023-01-13T07:13:17.573Z,100087.84
2023-01-13T07:15:52.947Z,100087.84
2023-01-13T07:18:19.490Z,100092.41
2023-01-13T07:20:52.057Z,100095.94
2023-01-13T07:23:18.593Z,100107.59
2023-01-13T07:25:45.140Z,100100.34
2023-01-13T07:28:13.056Z,100098.50
2023-01-13T07:30:40.160Z,100095.94
2023-01-13T07:33:06.695Z,100098.66
2023-01-13T07:35:33.275Z,100096.97
2023-01-13T07:37:59.787Z,100100.69
2023-01-13T07:40:26.355Z,100113.19
2023-01-13T07:42:52.916Z,100117.75
2023-01-13T07:45:20.788Z,100121.59
2023-01-13T07:47:51.614Z,100114.69
2023-01-13T07:50:18.300Z,100109.44
2023-01-13T07:52:44.831Z,100119.38
2023-01-13T07:55:11.463Z,100118.53
2023-01-13T07:57:37.970Z,100114.84
2023-01-13T08:00:05.450Z,100131.03
2023-01-13T08:02:33.428Z,100133.72
2023-01-13T08:05:00.011Z,100133.72
2023-01-13T08:07:26.505Z,100138.97
2023-01-13T08:09:53.018Z,100141.53
2023-01-13T08:12:19.523Z,100144.03
2023-01-13T08:14:46.066Z,100158.06
2023-01-13T08:17:12.625Z,100147.97
2023-01-13T08:19:40.841Z,100151.31
2023-01-13T08:22:07.373Z,100137.66
2023-01-13T08:24:33.899Z,100148.31
2023-01-13T08:27:00.453Z,100144.56
2023-01-13T08:29:26.991Z,100151.88
2023-01-13T08:31:53.568Z,100148.97
2023-01-13T08:34:20.188Z,100159.63
2023-01-13T08:36:49.211Z,100138.69
2023-01-13T08:39:15.821Z,100121.47
2023-01-13T08:41:43.349Z,100152.19
2023-01-13T08:44:09.877Z,100159.47
2023-01-13T08:46:36.968Z,100169.44
2023-01-13T08:49:03.908Z,100171.44
2023-01-13T08:51:30.556Z,100165.19
2023-01-13T08:53:58.530Z,100166.19
2023-01-13T08:56:25.103Z,100169.75
2023-01-13T08:58:52.676Z,100153.53
2023-01-13T09:01:22.513Z,100154.38
2023-01-13T09:03:49.371Z,100150.16
2023-01-13T09:06:15.931Z,100106.94
2023-01-13T09:08:43.331Z,100122.31
2023-01-13T09:11:18.112Z,100129.41
2023-01-13T09:13:44.652Z,100136.81
2023-01-13T09:16:11.203Z,100145.78
2023-01-13T09:18:37.836Z,100143.91
2023-01-13T09:21:04.897Z,100151.88
2023-01-13T09:23:31.451Z,100163.50
2023-01-13T09:25:58.088Z,100169.59
2023-01-13T09:28:25.974Z,100166.53
2023-01-13T09:30:52.556Z,100170.94
2023-01-13T09:33:19.128Z,100166.06
2023-01-13T09:35:45.727Z,100165.41
2023-01-13T09:38:12.262Z,100152.41
2023-01-13T09:40:40.683Z,100155.81
2023-01-13T09:43:17.163Z,100152.41
2023-01-13T09:45:50.553Z,100147.84
2023-01-13T09:48:18.904Z,100152.06
2023-01-13T09:50:55.118Z,100152.94
2023-01-13T09:53:25.475Z,100163.78
2023-01-13T09:55:52.026Z,100175.78
2023-01-13T09:58:19.362Z,100182.06
2023-01-13T10:00:55.942Z,100185.81
2023-01-13T10:03:26.002Z,100186.31
2023-01-13T10:05:58.005Z,100177.22
2023-01-13T10:08:27.628Z,100175.84
2023-01-13T10:10:56.231Z,100173.50
2023-01-13T10:13:25.192Z,100177.56
2023-01-13T10:16:22.840Z,100167.41
2023-01-13T10:19:02.743Z,100173.50
2023-01-13T10:21:51.378Z,100173.50
2023-01-13T10:24:26.008Z,100162.34
2023-01-13T10:27:02.235Z,100166.38
2023-01-13T10:29:30.936Z,100166.69
2023-01-13T10:32:00.136Z,100165.34
2023-01-13T10:34:28.069Z,100156.94
2023-01-13T10:36:56.992Z,100163.50
2023-01-13T10:39:23.590Z,100172.78
2023-01-13T10:42:01.358Z,100178.34
2023-01-13T10:44:28.044Z,100173.44
2023-01-13T10:46:56.604Z,100176.16
2023-01-13T10:49:33.097Z,100174.31
2023-01-13T10:52:00.556Z,100169.75
2023-01-13T10:54:27.186Z,100171.44
2023-01-13T10:57:18.562Z,100156.88
2023-01-13T10:59:45.202Z,100168.41
2023-01-13T11:02:25.893Z,100155.22
2023-01-13T11:05:09.212Z,100157.94
2023-01-13T11:07:38.645Z,100153.88
2023-01-13T11:10:21.996Z,100153.53
2023-01-13T11:12:59.684Z,100156.94
2023-01-13T11:15:38.794Z,100158.28
2023-01-13T11:18:13.437Z,100159.78
2023-01-13T11:20:45.937Z,100168.75
2023-01-13T11:23:18.626Z,100168.59
2023-01-13T11:25:49.448Z,100165.72
2023-01-13T11:28:35.779Z,100168.09
2023-01-13T11:31:10.173Z,100170.78
2023-01-13T11:33:41.525Z,100168.09
2023-01-13T11:36:14.106Z,100167.91
2023-01-13T11:38:49.360Z,100167.91
2023-01-13T11:41:24.868Z,100165.03
2023-01-13T11:43:55.256Z,100167.72
2023-01-13T11:46:25.741Z,100164.03
2023-01-13T11:48:52.583Z,100168.59
2023-01-13T11:51:32.831Z,100174.84
2023-01-13T11:54:18.851Z,100174.69
2023-01-13T11:57:04.114Z,100181.75
2023-01-13T12:00:00.666Z,100160.13
2023-01-13T12:02:47.478Z,100170.78
2023-01-13T12:05:23.041Z,100170.44
2023-01-13T12:08:02.528Z,100174.16
2023-01-13T12:10:44.217Z,100172.13
2023-01-13T12:13:22.163Z,100176.69
2023-01-13T12:16:14.779Z,100171.13
2023-01-13T12:19:15.161Z,100172.81
2023-01-13T12:21:58.087Z,100178.88
2023-01-13T12:24:31.408Z,100165.84
2023-01-13T12:27:02.694Z,100170.94
2023-01-13T12:29:32.766Z,100181.59
2023-01-13T12:32:01.764Z,100184.63
2023-01-13T12:34:50.338Z,100183.94
2023-01-13T12:37:25.876Z,100186.84
2023-01-13T12:40:15.361Z,100186.00
2023-01-13T12:42:48.526Z,100191.75
2023-01-13T12:45:26.837Z,100188.38
2023-01-13T12:47:53.759Z,100199.34
2023-01-13T12:50:42.168Z,100201.88
2023-01-13T12:53:38.874Z,100196.97
2023-01-13T12:56:39.399Z,100197.31
2023-01-13T12:59:42.231Z,100217.47
2023-01-13T13:02:28.092Z,100199.34
2023-01-13T13:04:56.606Z,100200.03
2023-01-13T13:07:32.659Z,100199.16
2023-01-13T13:10:02.139Z,100209.34
2023-01-13T13:12:53.019Z,100208.00
2023-01-13T13:15:21.278Z,100197.47
2023-01-13T13:18:22.535Z,100207.66
2023-01-13T13:20:55.714Z,100202.59
2023-01-13T13:23:44.829Z,100206.28
2023-01-13T13:26:18.312Z,100210.00
2023-01-13T13:28:49.630Z,100210.34
2023-01-13T13:31:28.237Z,100222.84
2023-01-13T13:34:13.928Z,100216.78
2023-01-13T13:36:56.904Z,100227.94
2023-01-13T13:39:26.541Z,100222.53
2023-01-13T13:42:02.382Z,100224.53
2023-01-13T13:44:33.293Z,100208.47
2023-01-13T13:47:02.452Z,100217.78
2023-01-13T13:49:38.245Z,100223.69
2023-01-13T13:52:08.845Z,100226.75
2023-01-13T13:54:35.714Z,100227.25
2023-01-13T13:57:02.327Z,100229.25
2023-01-13T13:59:30.292Z,100230.28
2023-01-13T14:01:59.507Z,100220.78
2023-01-13T14:04:27.300Z,100229.94
2023-01-13T14:06:55.737Z,100239.06
2023-01-13T14:09:23.997Z,100236.69
2023-01-13T14:11:59.954Z,100237.00
2023-01-13T14:14:26.606Z,100239.03
2023-01-13T14:16:54.774Z,100246.31
2023-01-13T14:19:27.001Z,100236.66
2023-01-13T14:21:53.981Z,100236.97
2023-01-13T14:24:20.632Z,100245.28
2023-01-13T14:26:47.161Z,100242.72
2023-01-13T14:29:18.084Z,100235.63
2023-01-13T14:31:45.258Z,100231.22
2023-01-13T14:34:32.279Z,100232.25
2023-01-13T14:36:59.828Z,100229.81
2023-01-13T14:39:35.103Z,100236.25
2023-01-13T14:42:01.948Z,100238.28
2023-01-13T14:44:31.194Z,100243.69
2023-01-13T14:47:00.428Z,100243.84
2023-01-13T14:49:34.085Z,100248.38
2023-01-13T14:52:07.528Z,100253.97
2023-01-13T14:54:51.564Z,100250.59
2023-01-13T14:57:25.727Z,100252.44
2023-01-13T14:59:59.136Z,100246.38
2023-01-13T15:02:47.346Z,100246.69
2023-01-13T15:05:39.250Z,100251.41
2023-01-13T15:08:22.697Z,100261.53
2023-01-13T15:10:51.999Z,100254.59
2023-01-13T15:13:29.527Z,100265.41
2023-01-13T15:15:58.403Z,100263.03
2023-01-13T15:18:25.071Z,100269.44
2023-01-13T15:20:53.140Z,100264.19
2023-01-13T15:23:20.470Z,100269.94
2023-01-13T15:25:47.833Z,100266.53
2023-01-13T15:28:17.212Z,100274.81
2023-01-13T15:30:43.845Z,100278.53
2023-01-13T15:33:12.856Z,100275.16
2023-01-13T15:35:42.659Z,100281.56
2023-01-13T15:38:12.311Z,100276.44
2023-01-13T15:40:39.210Z,100274.78
2023-01-13T15:43:05.807Z,100284.03
2023-01-13T15:45:34.361Z,100286.06
2023-01-13T15:48:02.510Z,100288.06
2023-01-13T15:50:29.027Z,100269.50
2023-01-13T15:52:55.508Z,100285.84
2023-01-13T15:55:23.701Z,100279.59
2023-01-13T15:57:50.521Z,100277.06
2023-01-13T16:00:19.302Z,100280.78
2023-01-13T16:02:46.244Z,100282.78
2023-01-13T16:05:13.070Z,100291.06
2023-01-13T16:07:39.729Z,100297.59
2023-01-13T16:10:15.656Z,100295.94
2023-01-13T16:12:43.643Z,100315.84
2023-01-13T16:15:13.040Z,100317.69
2023-01-13T16:17:40.117Z,100314.13
2023-01-13T16:20:12.971Z,100327.78
2023-01-13T16:22:39.463Z,100323.41
2023-01-13T16:25:06.839Z,100326.09
2023-01-13T16:27:33.497Z,100324.56
2023-01-13T16:30:01.500Z,100323.03
2023-01-13T16:32:28.036Z,100321.31
2023-01-13T16:34:54.660Z,100328.72
2023-01-13T16:37:23.787Z,100333.44
2023-01-13T16:39:50.995Z,100328.06
2023-01-13T16:42:17.629Z,100337.16
2023-01-13T16:44:44.191Z,100336.28
2023-01-13T16:47:16.479Z,100339.84
2023-01-13T16:49:43.063Z,100341.88
2023-01-13T16:52:09.851Z,100352.66
2023-01-13T16:54:36.519Z,100355.50
2023-01-13T16:57:03.264Z,100355.50
2023-01-13T16:59:29.795Z,100365.47
2023-01-13T17:01:56.365Z,100362.09
2023-01-13T17:04:24.451Z,100363.75
2023-01-13T17:06:55.678Z,100370.88
2023-01-13T17:09:23.877Z,100369.16
2023-01-13T17:11:54.039Z,100374.56
2023-01-13T17:14:21.223Z,100379.09
2023-01-13T17:16:48.078Z,100381.81
2023-01-13T17:19:14.703Z,100395.47
2023-01-13T17:21:42.695Z,100384.97
2023-01-13T17:24:09.767Z,100389.69
2023-01-13T17:26:38.068Z,100389.84
2023-01-13T17:29:06.657Z,100390.00
2023-01-13T17:31:35.118Z,100390.28
2023-01-13T17:34:02.021Z,100391.47
2023-01-13T17:36:29.136Z,100388.91
2023-01-13T17:38:57.384Z,100392.63
2023-01-13T17:41:24.731Z,100395.47
2023-01-13T17:43:52.093Z,100399.16
2023-01-13T17:46:19.906Z,100409.13
2023-01-13T17:48:46.776Z,100405.56
2023-01-13T17:51:14.818Z,100400.34
2023-01-13T17:53:41.424Z,100404.88
2023-01-13T17:56:10.378Z,100413.13
2023-01-13T17:58:37.101Z,100409.75
2023-01-13T18:01:07.383Z,100417.00
2023-01-13T18:03:34.401Z,100417.13
2023-01-13T18:06:02.971Z,100430.63
2023-01-13T18:08:29.518Z,100425.22
2023-01-13T18:10:55.985Z,100431.63
2023-01-13T18:13:23.926Z,100434.50
2023-01-13T18:15:59.612Z,100430.22
2023-01-13T18:18:26.252Z,100438.50
2023-01-13T18:20:53.516Z,100438.63
2023-01-13T18:23:20.527Z,100435.94
2023-01-13T18:25:47.509Z,100435.09
2023-01-13T18:28:14.112Z,100435.94
2023-01-13T18:30:42.228Z,100451.13
2023-01-13T18:33:08.746Z,100440.34
2023-01-13T18:35:38.250Z,100447.41
2023-01-13T18:38:04.802Z,100451.13
2023-01-13T18:40:31.294Z,100459.22
2023-01-13T18:42:57.785Z,100466.28
2023-01-13T18:45:26.474Z,100460.22
2023-01-13T18:47:56.491Z,100473.72
2023-01-13T18:50:23.585Z,100473.72
2023-01-13T18:52:50.596Z,100473.72
2023-01-13T18:55:17.615Z,100467.47
2023-01-13T18:57:44.137Z,100471.16
2023-01-13T19:00:12.694Z,100473.84
2023-01-13T19:02:39.418Z,100474.69
2023-01-13T19:05:07.967Z,100481.09
2023-01-13T19:07:34.501Z,100482.13
2023-01-13T19:10:01.211Z,100483.78
2023-01-13T19:12:27.807Z,100491.88
2023-01-13T19:14:55.055Z,100483.78
2023-01-13T19:17:23.359Z,100483.94
2023-01-13T19:19:51.699Z,100491.88
2023-01-13T19:22:21.334Z,100490.88
2023-01-13T19:24:47.935Z,100488.19
2023-01-13T19:27:16.211Z,100494.44
2023-01-13T19:29:50.782Z,100496.28
2023-01-13T19:32:19.274Z,100501.53
2023-01-13T19:34:46.016Z,100506.06
2023-01-13T19:37:12.574Z,100506.06
2023-01-13T19:39:40.698Z,100512.47
2023-01-13T19:42:07.235Z,100518.56
2023-01-13T19:44:34.342Z,100521.41
2023-01-13T19:47:00.935Z,100528.66
2023-01-13T19:49:27.543Z,100526.94
2023-01-13T19:51:54.135Z,100540.59
2023-01-13T19:54:20.671Z,100544.44
2023-01-13T19:56:48.781Z,100541.06
2023-01-13T19:59:15.353Z,100543.88
2023-01-13T20:01:42.139Z,100558.38
2023-01-13T20:04:08.717Z,100556.69
2023-01-13T20:06:35.297Z,100550.44
2023-01-13T20:09:01.856Z,100558.66
2023-01-13T20:11:28.367Z,100562.34
2023-01-13T20:13:56.357Z,100561.50
2023-01-13T20:16:23.042Z,100566.22
2023-01-13T20:18:49.669Z,100578.00
2023-01-13T20:21:16.169Z,100572.59
2023-01-13T20:23:43.060Z,100564.66
2023-01-13T20:26:09.670Z,100577.31
2023-01-13T20:28:36.641Z,100577.44
2023-01-13T20:31:06.853Z,100573.03
2023-01-13T20:33:33.425Z,100575.72
2023-01-13T20:35:59.952Z,100576.91
2023-01-13T20:38:26.531Z,100585.97
2023-01-13T20:41:02.478Z,100585.13
2023-01-13T20:43:29.019Z,100588.81
2023-01-13T20:45:55.558Z,100602.59
2023-01-13T20:48:23.494Z,100595.66
2023-01-13T20:50:53.522Z,100592.09
2023-01-13T20:53:20.169Z,100600.34
2023-01-13T20:55:46.669Z,100595.94
2023-01-13T20:58:13.168Z,100608.56
2023-01-13T21:00:39.750Z,100609.41
2023-01-13T21:03:06.285Z,100613.81
2023-01-13T21:05:36.262Z,100613.81
2023-01-13T21:08:02.776Z,100612.97
2023-01-13T21:10:29.368Z,100612.97
2023-01-13T21:12:55.935Z,100624.91
2023-01-13T21:15:22.569Z,100622.47
2023-01-13T21:17:51.269Z,100618.22
2023-01-13T21:20:18.086Z,100624.78
2023-01-13T21:22:47.533Z,100618.78
2023-01-13T21:25:15.242Z,100633.41
2023-01-13T21:27:42.213Z,100645.19
2023-01-13T21:30:09.921Z,100640.22
2023-01-13T21:32:36.452Z,100642.25
2023-01-13T21:35:03.182Z,100643.09
2023-01-13T21:37:29.675Z,100645.91
2023-01-13T21:39:57.632Z,100650.44
2023-01-13T21:42:24.159Z,100661.22
2023-01-13T21:44:50.663Z,100651.31
2023-01-13T21:47:18.874Z,100645.06
2023-01-13T21:49:45.403Z,100661.97
2023-01-13T21:52:12.950Z,100666.31
2023-01-13T21:54:39.901Z,100657.25
2023-01-13T21:57:07.801Z,100659.25
2023-01-13T21:59:34.322Z,100658.25
2023-01-13T22:02:24.111Z,100656.41
2023-01-13T22:04:47.393Z,100662.66
2023-01-13T22:07:14.176Z,100662.66
2023-01-13T22:09:40.717Z,100662.66
2023-01-13T22:12:08.610Z,100657.25
2023-01-13T22:14:35.189Z,100671.47
2023-01-13T22:17:01.702Z,100671.47
2023-01-13T22:19:28.261Z,100671.28
2023-01-13T22:21:54.904Z,100672.31
2023-01-13T22:24:21.686Z,100669.75
2023-01-13T22:26:48.235Z,100679.81
2023-01-13T22:29:16.367Z,100681.94
2023-01-13T22:31:42.947Z,100682.94
2023-01-13T22:34:12.095Z,100684.81
2023-01-13T22:36:38.659Z,100683.09
2023-01-13T22:39:05.924Z,100685.78
2023-01-13T22:41:32.416Z,100698.41
2023-01-13T22:43:58.939Z,100693.88
2023-01-13T22:46:26.817Z,100696.66
2023-01-13T22:48:53.365Z,100695.81
2023-01-13T22:51:19.874Z,100694.09
2023-01-13T22:53:46.423Z,100703.91
2023-01-13T22:56:17.179Z,100704.19
2023-01-13T22:58:44.107Z,100701.63
2023-01-13T23:01:13.815Z,100706.31
2023-01-13T23:03:42.320Z,100714.53
2023-01-13T23:06:09.086Z,100716.53
2023-01-13T23:08:35.988Z,100714.81
2023-01-13T23:11:03.421Z,100723.88
2023-01-13T23:13:30.239Z,100723.88
2023-01-13T23:16:00.667Z,100727.44
2023-01-13T23:18:27.209Z,100716.78
2023-01-13T23:20:55.250Z,100723.03
2023-01-13T23:23:21.793Z,100719.63
2023-01-13T23:25:49.240Z,100726.16
2023-01-13T23:28:15.708Z,100721.91
2023-01-13T23:30:42.407Z,100728.28
2023-01-13T23:33:08.971Z,100732.81
2023-01-13T23:35:35.455Z,100726.72
2023-01-13T23:38:03.576Z,100735.78
2023-01-13T23:40:30.138Z,100736.78
2023-01-13T23:42:56.958Z,100740.44
2023-01-13T23:45:23.548Z,100737.91
2023-01-13T23:47:50.201Z,100749.53
2023-01-13T23:50:17.152Z,100743.41
2023-01-13T23:52:43.813Z,100752.50
2023-01-13T23:55:11.709Z,100762.41
2023-01-13T23:57:38.310Z,100759.03
